sensor_id;sensor_type;location;lat;lon;timestamp;P1;durP1;ratioP1;P2;durP2;ratioP2
51985;SDS011;38002;53.296;6.600;2023-09-07T00:02:44;3.90;;;3.65;;
51985;SDS011;38002;53.296;6.600;2023-09-07T00:07:44;5.60;;;4.37;;
51985;SDS011;38002;53.296;6.600;2023-09-07T00:12:45;4.97;;;4.53;;
51985;SDS011;38002;53.296;6.600;2023-09-07T00:17:46;5.47;;;4.53;;
51985;SDS011;38002;53.296;6.600;2023-09-07T00:22:46;9.17;;;4.70;;
51985;SDS011;38002;53.296;6.600;2023-09-07T00:27:48;5.72;;;4.97;;
51985;SDS011;38002;53.296;6.600;2023-09-07T00:32:48;5.27;;;4.60;;
51985;SDS011;38002;53.296;6.600;2023-09-07T00:37:48;7.20;;;5.00;;
51985;SDS011;38002;53.296;6.600;2023-09-07T00:42:49;5.17;;;4.77;;
51985;SDS011;38002;53.296;6.600;2023-09-07T00:47:50;6.43;;;5.00;;
51985;SDS011;38002;53.296;6.600;2023-09-07T00:52:50;4.63;;;4.23;;
51985;SDS011;38002;53.296;6.600;2023-09-07T00:57:51;5.03;;;4.63;;
51985;SDS011;38002;53.296;6.600;2023-09-07T01:02:52;6.97;;;4.87;;
51985;SDS011;38002;53.296;6.600;2023-09-07T01:07:59;6.77;;;4.17;;
51985;SDS011;38002;53.296;6.600;2023-09-07T01:13:07;5.35;;;4.70;;
51985;SDS011;38002;53.296;6.600;2023-09-07T01:18:08;5.00;;;4.50;;
51985;SDS011;38002;53.296;6.600;2023-09-07T01:23:10;6.90;;;5.07;;
51985;SDS011;38002;53.296;6.600;2023-09-07T01:28:12;5.30;;;4.80;;
51985;SDS011;38002;53.296;6.600;2023-09-07T01:33:18;4.97;;;4.57;;
51985;SDS011;38002;53.296;6.600;2023-09-07T01:38:18;5.72;;;5.22;;
51985;SDS011;38002;53.296;6.600;2023-09-07T01:43:19;5.30;;;4.90;;
51985;SDS011;38002;53.296;6.600;2023-09-07T01:53:21;4.50;;;4.20;;
51985;SDS011;38002;53.296;6.600;2023-09-07T01:58:22;6.60;;;5.43;;
51985;SDS011;38002;53.296;6.600;2023-09-07T02:03:24;7.13;;;5.95;;
51985;SDS011;38002;53.296;6.600;2023-09-07T02:08:27;7.13;;;6.47;;
51985;SDS011;38002;53.296;6.600;2023-09-07T02:13:28;8.67;;;6.87;;
51985;SDS011;38002;53.296;6.600;2023-09-07T02:18:28;5.50;;;5.00;;
51985;SDS011;38002;53.296;6.600;2023-09-07T02:23:29;5.20;;;4.80;;
51985;SDS011;38002;53.296;6.600;2023-09-07T02:28:30;5.22;;;4.72;;
51985;SDS011;38002;53.296;6.600;2023-09-07T02:33:31;5.20;;;4.70;;
51985;SDS011;38002;53.296;6.600;2023-09-07T02:38:32;5.78;;;5.25;;
51985;SDS011;38002;53.296;6.600;2023-09-07T02:43:35;6.77;;;5.60;;
51985;SDS011;38002;53.296;6.600;2023-09-07T02:48:36;7.10;;;6.47;;
51985;SDS011;38002;53.296;6.600;2023-09-07T02:53:36;10.77;;;5.97;;
51985;SDS011;38002;53.296;6.600;2023-09-07T02:58:39;7.33;;;6.67;;
51985;SDS011;38002;53.296;6.600;2023-09-07T03:03:40;8.48;;;6.45;;
51985;SDS011;38002;53.296;6.600;2023-09-07T03:08:41;6.07;;;5.57;;
51985;SDS011;38002;53.296;6.600;2023-09-07T03:13:42;7.27;;;6.63;;
51985;SDS011;38002;53.296;6.600;2023-09-07T03:18:43;7.18;;;6.50;;
51985;SDS011;38002;53.296;6.600;2023-09-07T03:23:43;9.07;;;6.90;;
51985;SDS011;38002;53.296;6.600;2023-09-07T03:28:45;11.75;;;7.18;;
51985;SDS011;38002;53.296;6.600;2023-09-07T03:33:46;7.22;;;6.60;;
51985;SDS011;38002;53.296;6.600;2023-09-07T03:38:46;11.70;;;6.40;;
51985;SDS011;38002;53.296;6.600;2023-09-07T03:43:47;6.40;;;5.80;;
51985;SDS011;38002;53.296;6.600;2023-09-07T03:48:50;7.13;;;6.43;;
51985;SDS011;38002;53.296;6.600;2023-09-07T03:53:51;7.47;;;6.87;;
51985;SDS011;38002;53.296;6.600;2023-09-07T03:58:53;7.85;;;7.18;;
51985;SDS011;38002;53.296;6.600;2023-09-07T04:03:53;6.07;;;5.57;;
51985;SDS011;38002;53.296;6.600;2023-09-07T04:08:53;8.40;;;7.20;;
51985;SDS011;38002;53.296;6.600;2023-09-07T04:13:54;10.20;;;7.37;;
51985;SDS011;38002;53.296;6.600;2023-09-07T04:18:54;8.67;;;7.77;;
51985;SDS011;38002;53.296;6.600;2023-09-07T04:23:55;7.93;;;6.77;;
51985;SDS011;38002;53.296;6.600;2023-09-07T04:28:56;8.60;;;6.53;;
51985;SDS011;38002;53.296;6.600;2023-09-07T04:33:56;7.03;;;6.43;;
51985;SDS011;38002;53.296;6.600;2023-09-07T04:38:56;8.17;;;7.30;;
51985;SDS011;38002;53.296;6.600;2023-09-07T04:43:57;6.87;;;5.37;;
51985;SDS011;38002;53.296;6.600;2023-09-07T04:48:58;7.57;;;6.40;;
51985;SDS011;38002;53.296;6.600;2023-09-07T04:53:58;8.23;;;7.43;;
51985;SDS011;38002;53.296;6.600;2023-09-07T04:58:59;8.27;;;7.43;;
51985;SDS011;38002;53.296;6.600;2023-09-07T05:03:59;8.67;;;7.07;;
51985;SDS011;38002;53.296;6.600;2023-09-07T05:09:03;8.50;;;7.22;;
51985;SDS011;38002;53.296;6.600;2023-09-07T05:14:04;7.23;;;6.03;;
51985;SDS011;38002;53.296;6.600;2023-09-07T05:19:04;7.37;;;6.67;;
51985;SDS011;38002;53.296;6.600;2023-09-07T05:24:05;6.67;;;5.97;;
51985;SDS011;38002;53.296;6.600;2023-09-07T05:29:06;8.73;;;6.20;;
51985;SDS011;38002;53.296;6.600;2023-09-07T05:34:06;7.50;;;6.60;;
51985;SDS011;38002;53.296;6.600;2023-09-07T05:39:07;8.17;;;7.37;;
51985;SDS011;38002;53.296;6.600;2023-09-07T05:44:07;8.17;;;7.40;;
51985;SDS011;38002;53.296;6.600;2023-09-07T05:49:08;7.93;;;7.13;;
51985;SDS011;38002;53.296;6.600;2023-09-07T05:54:08;8.67;;;7.53;;
51985;SDS011;38002;53.296;6.600;2023-09-07T05:59:09;8.67;;;7.87;;
51985;SDS011;38002;53.296;6.600;2023-09-07T06:04:09;8.33;;;7.17;;
51985;SDS011;38002;53.296;6.600;2023-09-07T06:09:10;8.43;;;7.53;;
51985;SDS011;38002;53.296;6.600;2023-09-07T06:14:11;10.33;;;8.00;;
51985;SDS011;38002;53.296;6.600;2023-09-07T06:19:11;7.87;;;7.10;;
51985;SDS011;38002;53.296;6.600;2023-09-07T06:24:12;11.03;;;8.37;;
51985;SDS011;38002;53.296;6.600;2023-09-07T06:29:12;8.17;;;7.37;;
51985;SDS011;38002;53.296;6.600;2023-09-07T06:34:13;7.27;;;6.63;;
51985;SDS011;38002;53.296;6.600;2023-09-07T06:39:13;9.07;;;8.17;;
51985;SDS011;38002;53.296;6.600;2023-09-07T06:44:14;9.70;;;8.57;;
51985;SDS011;38002;53.296;6.600;2023-09-07T06:49:14;9.97;;;8.43;;
51985;SDS011;38002;53.296;6.600;2023-09-07T06:54:15;9.97;;;8.97;;
51985;SDS011;38002;53.296;6.600;2023-09-07T06:59:18;9.27;;;8.48;;
51985;SDS011;38002;53.296;6.600;2023-09-07T07:04:19;10.47;;;9.33;;
51985;SDS011;38002;53.296;6.600;2023-09-07T07:09:19;12.17;;;9.20;;
51985;SDS011;38002;53.296;6.600;2023-09-07T07:14:20;11.90;;;8.73;;
51985;SDS011;38002;53.296;6.600;2023-09-07T07:19:20;8.63;;;7.80;;
51985;SDS011;38002;53.296;6.600;2023-09-07T07:24:21;9.57;;;8.67;;
51985;SDS011;38002;53.296;6.600;2023-09-07T07:29:22;9.13;;;8.23;;
51985;SDS011;38002;53.296;6.600;2023-09-07T07:34:22;12.60;;;8.80;;
51985;SDS011;38002;53.296;6.600;2023-09-07T07:39:22;9.73;;;8.80;;
51985;SDS011;38002;53.296;6.600;2023-09-07T07:44:23;9.50;;;7.27;;
51985;SDS011;38002;53.296;6.600;2023-09-07T07:49:23;7.10;;;6.47;;
51985;SDS011;38002;53.296;6.600;2023-09-07T07:54:24;7.30;;;6.70;;
51985;SDS011;38002;53.296;6.600;2023-09-07T07:59:25;7.53;;;6.82;;
51985;SDS011;38002;53.296;6.600;2023-09-07T08:04:26;6.70;;;6.10;;
51985;SDS011;38002;53.296;6.600;2023-09-07T08:09:27;8.07;;;7.28;;
51985;SDS011;38002;53.296;6.600;2023-09-07T08:14:28;9.85;;;6.43;;
51985;SDS011;38002;53.296;6.600;2023-09-07T08:19:31;8.93;;;6.10;;
51985;SDS011;38002;53.296;6.600;2023-09-07T08:24:32;10.23;;;5.72;;
51985;SDS011;38002;53.296;6.600;2023-09-07T08:29:33;7.20;;;6.47;;
51985;SDS011;38002;53.296;6.600;2023-09-07T08:34:33;7.03;;;5.10;;
51985;SDS011;38002;53.296;6.600;2023-09-07T08:39:36;8.00;;;5.53;;
51985;SDS011;38002;53.296;6.600;2023-09-07T08:44:39;5.18;;;4.68;;
51985;SDS011;38002;53.296;6.600;2023-09-07T08:49:43;7.15;;;5.55;;
51985;SDS011;38002;53.296;6.600;2023-09-07T08:54:48;4.53;;;4.18;;
51985;SDS011;38002;53.296;6.600;2023-09-07T08:59:51;4.65;;;4.25;;
51985;SDS011;38002;53.296;6.600;2023-09-07T09:04:51;6.10;;;4.50;;
51985;SDS011;38002;53.296;6.600;2023-09-07T09:10:01;4.50;;;4.20;;
51985;SDS011;38002;53.296;6.600;2023-09-07T09:15:06;5.07;;;4.65;;
51985;SDS011;38002;53.296;6.600;2023-09-07T09:20:24;9.63;;;4.50;;
51985;SDS011;38002;53.296;6.600;2023-09-07T09:25:31;6.90;;;4.68;;
51985;SDS011;38002;53.296;6.600;2023-09-07T09:30:31;5.00;;;4.50;;
51985;SDS011;38002;53.296;6.600;2023-09-07T09:35:32;5.97;;;4.17;;
51985;SDS011;38002;53.296;6.600;2023-09-07T09:40:34;9.98;;;4.63;;
51985;SDS011;38002;53.296;6.600;2023-09-07T09:45:35;7.13;;;4.20;;
51985;SDS011;38002;53.296;6.600;2023-09-07T09:50:37;5.68;;;4.15;;
51985;SDS011;38002;53.296;6.600;2023-09-07T09:55:39;6.68;;;4.70;;
51985;SDS011;38002;53.296;6.600;2023-09-07T10:00:43;7.45;;;3.95;;
51985;SDS011;38002;53.296;6.600;2023-09-07T10:05:45;7.00;;;3.75;;
51985;SDS011;38002;53.296;6.600;2023-09-07T10:10:49;8.38;;;3.92;;
51985;SDS011;38002;53.296;6.600;2023-09-07T10:15:59;5.40;;;3.95;;
51985;SDS011;38002;53.296;6.600;2023-09-07T10:21:10;4.60;;;4.10;;
51985;SDS011;38002;53.296;6.600;2023-09-07T10:31:18;6.00;;;4.00;;
51985;SDS011;38002;53.296;6.600;2023-09-07T10:36:23;6.57;;;4.00;;
51985;SDS011;38002;53.296;6.600;2023-09-07T10:41:24;4.20;;;3.78;;
51985;SDS011;38002;53.296;6.600;2023-09-07T10:46:25;4.97;;;3.92;;
51985;SDS011;38002;53.296;6.600;2023-09-07T10:51:26;7.88;;;3.78;;
51985;SDS011;38002;53.296;6.600;2023-09-07T10:56:26;5.22;;;3.58;;
51985;SDS011;38002;53.296;6.600;2023-09-07T11:01:27;5.03;;;3.85;;
51985;SDS011;38002;53.296;6.600;2023-09-07T11:06:28;6.00;;;3.47;;
51985;SDS011;38002;53.296;6.600;2023-09-07T11:11:28;12.45;;;4.10;;
51985;SDS011;38002;53.296;6.600;2023-09-07T11:16:29;5.47;;;3.05;;
51985;SDS011;38002;53.296;6.600;2023-09-07T11:21:30;3.67;;;3.33;;
51985;SDS011;38002;53.296;6.600;2023-09-07T11:26:45;4.40;;;3.10;;
51985;SDS011;38002;53.296;6.600;2023-09-07T11:31:47;4.05;;;2.75;;
51985;SDS011;38002;53.296;6.600;2023-09-07T11:36:47;7.72;;;3.33;;
51985;SDS011;38002;53.296;6.600;2023-09-07T11:41:49;5.28;;;3.35;;
51985;SDS011;38002;53.296;6.600;2023-09-07T11:46:49;4.07;;;3.42;;
51985;SDS011;38002;53.296;6.600;2023-09-07T11:51:50;3.80;;;3.50;;
51985;SDS011;38002;53.296;6.600;2023-09-07T11:56:50;5.77;;;3.47;;
51985;SDS011;38002;53.296;6.600;2023-09-07T12:01:51;7.25;;;3.42;;
51985;SDS011;38002;53.296;6.600;2023-09-07T12:06:51;4.20;;;3.30;;
51985;SDS011;38002;53.296;6.600;2023-09-07T12:11:52;3.70;;;3.40;;
51985;SDS011;38002;53.296;6.600;2023-09-07T12:16:52;3.45;;;3.15;;
51985;SDS011;38002;53.296;6.600;2023-09-07T12:21:59;7.22;;;3.83;;
51985;SDS011;38002;53.296;6.600;2023-09-07T12:27:06;4.45;;;3.80;;
51985;SDS011;38002;53.296;6.600;2023-09-07T12:32:07;4.60;;;3.67;;
51985;SDS011;38002;53.296;6.600;2023-09-07T12:37:07;6.55;;;3.90;;
51985;SDS011;38002;53.296;6.600;2023-09-07T12:42:08;7.30;;;3.28;;
51985;SDS011;38002;53.296;6.600;2023-09-07T12:47:08;4.55;;;3.03;;
51985;SDS011;38002;53.296;6.600;2023-09-07T12:52:09;3.75;;;3.45;;
51985;SDS011;38002;53.296;6.600;2023-09-07T12:57:10;3.75;;;3.35;;
51985;SDS011;38002;53.296;6.600;2023-09-07T13:02:11;4.03;;;3.60;;
51985;SDS011;38002;53.296;6.600;2023-09-07T13:07:12;4.85;;;3.78;;
51985;SDS011;38002;53.296;6.600;2023-09-07T13:12:12;4.55;;;4.15;;
51985;SDS011;38002;53.296;6.600;2023-09-07T13:17:13;4.45;;;3.35;;
51985;SDS011;38002;53.296;6.600;2023-09-07T13:22:16;4.68;;;3.40;;
51985;SDS011;38002;53.296;6.600;2023-09-07T13:27:17;5.28;;;3.60;;
51985;SDS011;38002;53.296;6.600;2023-09-07T13:32:17;5.28;;;3.72;;
51985;SDS011;38002;53.296;6.600;2023-09-07T13:37:18;3.90;;;3.60;;
51985;SDS011;38002;53.296;6.600;2023-09-07T13:42:19;4.93;;;3.50;;
51985;SDS011;38002;53.296;6.600;2023-09-07T13:47:19;4.40;;;3.55;;
51985;SDS011;38002;53.296;6.600;2023-09-07T13:52:20;6.35;;;3.65;;
51985;SDS011;38002;53.296;6.600;2023-09-07T13:57:20;4.55;;;3.53;;
51985;SDS011;38002;53.296;6.600;2023-09-07T14:02:20;4.40;;;3.40;;
51985;SDS011;38002;53.296;6.600;2023-09-07T14:07:30;3.03;;;2.83;;
51985;SDS011;38002;53.296;6.600;2023-09-07T14:12:40;6.60;;;3.25;;
51985;SDS011;38002;53.296;6.600;2023-09-07T14:17:42;3.97;;;3.47;;
51985;SDS011;38002;53.296;6.600;2023-09-07T14:22:42;5.57;;;3.47;;
51985;SDS011;38002;53.296;6.600;2023-09-07T14:27:43;3.33;;;3.13;;
51985;SDS011;38002;53.296;6.600;2023-09-07T14:32:44;3.88;;;3.45;;
51985;SDS011;38002;53.296;6.600;2023-09-07T14:37:47;3.95;;;3.47;;
51985;SDS011;38002;53.296;6.600;2023-09-07T14:42:49;4.15;;;3.35;;
51985;SDS011;38002;53.296;6.600;2023-09-07T14:47:51;3.58;;;3.22;;
51985;SDS011;38002;53.296;6.600;2023-09-07T14:52:51;4.22;;;3.83;;
51985;SDS011;38002;53.296;6.600;2023-09-07T14:57:52;4.50;;;3.45;;
51985;SDS011;38002;53.296;6.600;2023-09-07T15:02:53;3.60;;;3.30;;
51985;SDS011;38002;53.296;6.600;2023-09-07T15:07:53;6.07;;;3.53;;
51985;SDS011;38002;53.296;6.600;2023-09-07T15:12:54;4.55;;;3.72;;
51985;SDS011;38002;53.296;6.600;2023-09-07T15:17:55;4.03;;;3.43;;
51985;SDS011;38002;53.296;6.600;2023-09-07T15:22:56;4.95;;;4.30;;
51985;SDS011;38002;53.296;6.600;2023-09-07T15:27:57;7.45;;;3.95;;
51985;SDS011;38002;53.296;6.600;2023-09-07T15:32:59;5.07;;;3.60;;
51985;SDS011;38002;53.296;6.600;2023-09-07T15:37:59;7.25;;;3.75;;
51985;SDS011;38002;53.296;6.600;2023-09-07T15:43:00;3.80;;;3.50;;
51985;SDS011;38002;53.296;6.600;2023-09-07T15:48:00;3.83;;;3.50;;
51985;SDS011;38002;53.296;6.600;2023-09-07T15:53:02;9.15;;;5.10;;
51985;SDS011;38002;53.296;6.600;2023-09-07T15:58:03;5.82;;;4.32;;
51985;SDS011;38002;53.296;6.600;2023-09-07T16:03:03;4.90;;;3.50;;
51985;SDS011;38002;53.296;6.600;2023-09-07T16:08:04;4.35;;;3.95;;
51985;SDS011;38002;53.296;6.600;2023-09-07T16:13:05;7.18;;;3.88;;
51985;SDS011;38002;53.296;6.600;2023-09-07T16:18:05;5.00;;;3.70;;
51985;SDS011;38002;53.296;6.600;2023-09-07T16:23:06;7.78;;;4.15;;
51985;SDS011;38002;53.296;6.600;2023-09-07T16:28:09;4.00;;;3.58;;
51985;SDS011;38002;53.296;6.600;2023-09-07T16:33:10;4.45;;;4.05;;
51985;SDS011;38002;53.296;6.600;2023-09-07T16:38:11;6.40;;;3.40;;
51985;SDS011;38002;53.296;6.600;2023-09-07T16:43:12;5.88;;;3.42;;
51985;SDS011;38002;53.296;6.600;2023-09-07T16:48:12;3.70;;;3.35;;
51985;SDS011;38002;53.296;6.600;2023-09-07T16:53:13;4.95;;;3.40;;
51985;SDS011;38002;53.296;6.600;2023-09-07T16:58:14;3.83;;;3.53;;
51985;SDS011;38002;53.296;6.600;2023-09-07T17:03:14;3.17;;;2.92;;
51985;SDS011;38002;53.296;6.600;2023-09-07T17:08:16;6.43;;;3.80;;
51985;SDS011;38002;53.296;6.600;2023-09-07T17:13:18;5.45;;;3.53;;
51985;SDS011;38002;53.296;6.600;2023-09-07T17:18:18;3.53;;;3.22;;
51985;SDS011;38002;53.296;6.600;2023-09-07T17:23:19;6.60;;;3.97;;
51985;SDS011;38002;53.296;6.600;2023-09-07T17:28:19;9.20;;;4.45;;
51985;SDS011;38002;53.296;6.600;2023-09-07T17:33:20;3.53;;;3.22;;
51985;SDS011;38002;53.296;6.600;2023-09-07T17:38:22;2.97;;;2.78;;
51985;SDS011;38002;53.296;6.600;2023-09-07T17:43:22;4.20;;;3.60;;
51985;SDS011;38002;53.296;6.600;2023-09-07T17:48:23;3.65;;;3.35;;
51985;SDS011;38002;53.296;6.600;2023-09-07T17:53:24;3.33;;;3.03;;
51985;SDS011;38002;53.296;6.600;2023-09-07T17:58:25;5.03;;;3.55;;
51985;SDS011;38002;53.296;6.600;2023-09-07T18:03:25;3.30;;;3.00;;
51985;SDS011;38002;53.296;6.600;2023-09-07T18:08:26;3.40;;;3.10;;
51985;SDS011;38002;53.296;6.600;2023-09-07T18:13:26;3.30;;;3.10;;
51985;SDS011;38002;53.296;6.600;2023-09-07T18:18:27;4.22;;;3.83;;
51985;SDS011;38002;53.296;6.600;2023-09-07T18:28:28;3.97;;;3.67;;
51985;SDS011;38002;53.296;6.600;2023-09-07T18:33:30;5.97;;;3.80;;
51985;SDS011;38002;53.296;6.600;2023-09-07T18:38:33;4.15;;;3.83;;
51985;SDS011;38002;53.296;6.600;2023-09-07T18:48:34;5.47;;;3.23;;
51985;SDS011;38002;53.296;6.600;2023-09-07T18:53:35;5.25;;;4.85;;
51985;SDS011;38002;53.296;6.600;2023-09-07T18:58:36;5.82;;;3.60;;
51985;SDS011;38002;53.296;6.600;2023-09-07T19:03:36;4.03;;;3.50;;
51985;SDS011;38002;53.296;6.600;2023-09-07T19:08:37;8.93;;;3.75;;
51985;SDS011;38002;53.296;6.600;2023-09-07T19:13:38;6.10;;;4.43;;
51985;SDS011;38002;53.296;6.600;2023-09-07T19:18:39;5.72;;;4.80;;
51985;SDS011;38002;53.296;6.600;2023-09-07T19:23:40;4.90;;;4.23;;
51985;SDS011;38002;53.296;6.600;2023-09-07T19:28:45;5.57;;;5.00;;
51985;SDS011;38002;53.296;6.600;2023-09-07T19:33:49;5.10;;;4.60;;
51985;SDS011;38002;53.296;6.600;2023-09-07T19:38:51;7.70;;;4.88;;
51985;SDS011;38002;53.296;6.600;2023-09-07T19:43:53;4.40;;;4.10;;
51985;SDS011;38002;53.296;6.600;2023-09-07T19:48:54;8.43;;;4.67;;
51985;SDS011;38002;53.296;6.600;2023-09-07T19:53:55;8.85;;;4.57;;
51985;SDS011;38002;53.296;6.600;2023-09-07T19:58:55;5.17;;;4.77;;
51985;SDS011;38002;53.296;6.600;2023-09-07T20:03:56;7.10;;;4.97;;
51985;SDS011;38002;53.296;6.600;2023-09-07T20:08:56;6.60;;;4.50;;
51985;SDS011;38002;53.296;6.600;2023-09-07T20:13:57;5.10;;;4.57;;
51985;SDS011;38002;53.296;6.600;2023-09-07T20:18:57;5.10;;;4.43;;
51985;SDS011;38002;53.296;6.600;2023-09-07T20:23:58;9.07;;;5.40;;
51985;SDS011;38002;53.296;6.600;2023-09-07T20:28:59;4.70;;;4.25;;
51985;SDS011;38002;53.296;6.600;2023-09-07T20:34:00;6.07;;;5.47;;
51985;SDS011;38002;53.296;6.600;2023-09-07T20:39:00;5.43;;;4.93;;
51985;SDS011;38002;53.296;6.600;2023-09-07T20:44:01;6.30;;;5.60;;
51985;SDS011;38002;53.296;6.600;2023-09-07T20:49:02;8.67;;;6.07;;
51985;SDS011;38002;53.296;6.600;2023-09-07T20:54:02;6.93;;;5.90;;
51985;SDS011;38002;53.296;6.600;2023-09-07T20:59:03;5.90;;;5.27;;
51985;SDS011;38002;53.296;6.600;2023-09-07T21:04:04;8.33;;;5.97;;
51985;SDS011;38002;53.296;6.600;2023-09-07T21:09:04;6.43;;;5.70;;
51985;SDS011;38002;53.296;6.600;2023-09-07T21:14:05;6.77;;;5.73;;
51985;SDS011;38002;53.296;6.600;2023-09-07T21:19:05;5.37;;;4.97;;
51985;SDS011;38002;53.296;6.600;2023-09-07T21:24:09;7.60;;;5.83;;
51985;SDS011;38002;53.296;6.600;2023-09-07T21:29:12;6.22;;;5.70;;
51985;SDS011;38002;53.296;6.600;2023-09-07T21:34:13;8.85;;;5.88;;
51985;SDS011;38002;53.296;6.600;2023-09-07T21:39:14;7.57;;;6.43;;
51985;SDS011;38002;53.296;6.600;2023-09-07T21:44:15;6.23;;;5.67;;
51985;SDS011;38002;53.296;6.600;2023-09-07T21:49:17;7.57;;;5.55;;
51985;SDS011;38002;53.296;6.600;2023-09-07T21:54:18;11.38;;;6.55;;
51985;SDS011;38002;53.296;6.600;2023-09-07T21:59:18;7.40;;;5.93;;
51985;SDS011;38002;53.296;6.600;2023-09-07T22:04:19;6.50;;;5.90;;
51985;SDS011;38002;53.296;6.600;2023-09-07T22:09:19;5.97;;;5.37;;
51985;SDS011;38002;53.296;6.600;2023-09-07T22:14:20;7.33;;;5.97;;
51985;SDS011;38002;53.296;6.600;2023-09-07T22:19:21;6.95;;;6.22;;
51985;SDS011;38002;53.296;6.600;2023-09-07T22:24:21;7.00;;;6.33;;
51985;SDS011;38002;53.296;6.600;2023-09-07T22:29:22;8.80;;;6.77;;
51985;SDS011;38002;53.296;6.600;2023-09-07T22:34:22;7.00;;;6.40;;
51985;SDS011;38002;53.296;6.600;2023-09-07T22:39:25;7.25;;;6.55;;
51985;SDS011;38002;53.296;6.600;2023-09-07T22:44:26;8.43;;;6.67;;
51985;SDS011;38002;53.296;6.600;2023-09-07T22:49:26;7.57;;;6.88;;
51985;SDS011;38002;53.296;6.600;2023-09-07T22:54:27;7.90;;;7.10;;
51985;SDS011;38002;53.296;6.600;2023-09-07T22:59:27;7.43;;;6.73;;
51985;SDS011;38002;53.296;6.600;2023-09-07T23:04:28;7.53;;;6.73;;
51985;SDS011;38002;53.296;6.600;2023-09-07T23:09:28;6.03;;;5.53;;
51985;SDS011;38002;53.296;6.600;2023-09-07T23:14:30;7.53;;;6.07;;
51985;SDS011;38002;53.296;6.600;2023-09-07T23:19:31;7.53;;;6.73;;
51985;SDS011;38002;53.296;6.600;2023-09-07T23:24:31;7.17;;;6.10;;
51985;SDS011;38002;53.296;6.600;2023-09-07T23:29:32;7.97;;;7.23;;
51985;SDS011;38002;53.296;6.600;2023-09-07T23:34:32;7.03;;;6.33;;
51985;SDS011;38002;53.296;6.600;2023-09-07T23:39:33;8.50;;;7.70;;
51985;SDS011;38002;53.296;6.600;2023-09-07T23:44:34;7.65;;;6.95;;
51985;SDS011;38002;53.296;6.600;2023-09-07T23:49:34;6.93;;;6.17;;
51985;SDS011;38002;53.296;6.600;2023-09-07T23:54:35;8.07;;;7.27;;
51985;SDS011;38002;53.296;6.600;2023-09-07T23:59:35;9.23;;;7.27;;
